sensor_id;sensor_type;location;lat;lon;timestamp;P1;durP1;ratioP1;P2;durP2;ratioP2
78840;SDS011;68379;47.190;27.558;2024-03-08T00:02:12;18.30;;;8.10;;
78840;SDS011;68379;47.190;27.558;2024-03-08T00:04:44;20.90;;;9.10;;
78840;SDS011;68379;47.190;27.558;2024-03-08T00:07:17;21.60;;;9.00;;
78840;SDS011;68379;47.190;27.558;2024-03-08T00:09:49;20.00;;;8.70;;
78840;SDS011;68379;47.190;27.558;2024-03-08T00:12:21;20.20;;;8.70;;
78840;SDS011;68379;47.190;27.558;2024-03-08T00:14:55;19.40;;;8.30;;
78840;SDS011;68379;47.190;27.558;2024-03-08T00:17:27;18.80;;;8.00;;
78840;SDS011;68379;47.190;27.558;2024-03-08T00:19:59;19.60;;;8.50;;
78840;SDS011;68379;47.190;27.558;2024-03-08T00:22:38;20.20;;;8.10;;
78840;SDS011;68379;47.190;27.558;2024-03-08T00:25:12;23.30;;;8.50;;
78840;SDS011;68379;47.190;27.558;2024-03-08T00:27:44;21.50;;;9.20;;
78840;SDS011;68379;47.190;27.558;2024-03-08T00:30:17;24.50;;;9.20;;
78840;SDS011;68379;47.190;27.558;2024-03-08T00:32:51;18.70;;;8.30;;
78840;SDS011;68379;47.190;27.558;2024-03-08T00:35:24;21.30;;;8.90;;
78840;SDS011;68379;47.190;27.558;2024-03-08T00:37:56;20.00;;;9.10;;
78840;SDS011;68379;47.190;27.558;2024-03-08T00:40:28;18.70;;;7.80;;
78840;SDS011;68379;47.190;27.558;2024-03-08T00:43:00;19.50;;;8.20;;
78840;SDS011;68379;47.190;27.558;2024-03-08T00:48:05;18.50;;;7.90;;
78840;SDS011;68379;47.190;27.558;2024-03-08T00:50:38;23.00;;;8.90;;
78840;SDS011;68379;47.190;27.558;2024-03-08T00:53:10;20.30;;;8.60;;
78840;SDS011;68379;47.190;27.558;2024-03-08T00:55:41;21.40;;;10.00;;
78840;SDS011;68379;47.190;27.558;2024-03-08T00:58:15;20.80;;;9.60;;
78840;SDS011;68379;47.190;27.558;2024-03-08T01:00:48;20.00;;;8.60;;
78840;SDS011;68379;47.190;27.558;2024-03-08T01:03:20;18.50;;;8.50;;
78840;SDS011;68379;47.190;27.558;2024-03-08T01:05:53;21.80;;;9.50;;
78840;SDS011;68379;47.190;27.558;2024-03-08T01:08:25;24.00;;;9.20;;
78840;SDS011;68379;47.190;27.558;2024-03-08T01:10:57;21.30;;;9.20;;
78840;SDS011;68379;47.190;27.558;2024-03-08T01:13:29;18.40;;;8.40;;
78840;SDS011;68379;47.190;27.558;2024-03-08T01:16:01;19.80;;;8.10;;
78840;SDS011;68379;47.190;27.558;2024-03-08T01:18:34;24.30;;;9.90;;
78840;SDS011;68379;47.190;27.558;2024-03-08T01:21:05;23.40;;;9.70;;
78840;SDS011;68379;47.190;27.558;2024-03-08T01:23:38;23.00;;;9.20;;
78840;SDS011;68379;47.190;27.558;2024-03-08T01:26:10;22.00;;;9.10;;
78840;SDS011;68379;47.190;27.558;2024-03-08T01:28:43;20.30;;;8.50;;
78840;SDS011;68379;47.190;27.558;2024-03-08T01:31:15;22.30;;;8.90;;
78840;SDS011;68379;47.190;27.558;2024-03-08T01:33:47;19.60;;;9.00;;
78840;SDS011;68379;47.190;27.558;2024-03-08T01:36:18;22.30;;;9.30;;
78840;SDS011;68379;47.190;27.558;2024-03-08T01:38:50;27.10;;;9.80;;
78840;SDS011;68379;47.190;27.558;2024-03-08T01:41:22;19.80;;;8.50;;
78840;SDS011;68379;47.190;27.558;2024-03-08T01:43:57;21.10;;;10.10;;
78840;SDS011;68379;47.190;27.558;2024-03-08T01:46:30;25.50;;;9.60;;
78840;SDS011;68379;47.190;27.558;2024-03-08T01:49:03;24.80;;;9.90;;
78840;SDS011;68379;47.190;27.558;2024-03-08T01:51:35;20.90;;;8.20;;
78840;SDS011;68379;47.190;27.558;2024-03-08T01:54:08;20.10;;;8.40;;
78840;SDS011;68379;47.190;27.558;2024-03-08T01:56:41;19.80;;;8.50;;
78840;SDS011;68379;47.190;27.558;2024-03-08T01:59:15;23.50;;;9.10;;
78840;SDS011;68379;47.190;27.558;2024-03-08T02:01:50;20.20;;;8.40;;
78840;SDS011;68379;47.190;27.558;2024-03-08T02:04:23;21.20;;;8.60;;
78840;SDS011;68379;47.190;27.558;2024-03-08T02:06:55;22.20;;;9.20;;
78840;SDS011;68379;47.190;27.558;2024-03-08T02:09:28;21.90;;;9.00;;
78840;SDS011;68379;47.190;27.558;2024-03-08T02:12:01;17.50;;;7.30;;
78840;SDS011;68379;47.190;27.558;2024-03-08T02:14:33;16.30;;;8.20;;
78840;SDS011;68379;47.190;27.558;2024-03-08T02:17:05;20.40;;;9.20;;
78840;SDS011;68379;47.190;27.558;2024-03-08T02:19:40;18.30;;;7.20;;
78840;SDS011;68379;47.190;27.558;2024-03-08T02:22:12;18.00;;;8.00;;
78840;SDS011;68379;47.190;27.558;2024-03-08T02:24:43;20.10;;;8.60;;
78840;SDS011;68379;47.190;27.558;2024-03-08T02:27:16;20.40;;;8.80;;
78840;SDS011;68379;47.190;27.558;2024-03-08T02:29:55;19.00;;;7.80;;
78840;SDS011;68379;47.190;27.558;2024-03-08T02:32:28;18.40;;;8.70;;
78840;SDS011;68379;47.190;27.558;2024-03-08T02:35:01;21.60;;;8.90;;
78840;SDS011;68379;47.190;27.558;2024-03-08T02:37:38;16.40;;;7.90;;
78840;SDS011;68379;47.190;27.558;2024-03-08T02:40:11;19.60;;;8.80;;
78840;SDS011;68379;47.190;27.558;2024-03-08T02:42:43;19.10;;;8.20;;
78840;SDS011;68379;47.190;27.558;2024-03-08T02:45:15;19.70;;;8.70;;
78840;SDS011;68379;47.190;27.558;2024-03-08T02:50:19;18.20;;;8.20;;
78840;SDS011;68379;47.190;27.558;2024-03-08T02:52:51;17.10;;;8.00;;
78840;SDS011;68379;47.190;27.558;2024-03-08T02:55:23;17.40;;;7.30;;
78840;SDS011;68379;47.190;27.558;2024-03-08T02:57:55;19.70;;;8.60;;
78840;SDS011;68379;47.190;27.558;2024-03-08T03:00:27;18.30;;;7.80;;
78840;SDS011;68379;47.190;27.558;2024-03-08T03:03:01;20.50;;;8.00;;
78840;SDS011;68379;47.190;27.558;2024-03-08T03:05:33;19.00;;;8.10;;
78840;SDS011;68379;47.190;27.558;2024-03-08T03:08:05;17.20;;;8.00;;
78840;SDS011;68379;47.190;27.558;2024-03-08T03:10:39;16.90;;;7.20;;
78840;SDS011;68379;47.190;27.558;2024-03-08T03:13:11;18.90;;;8.10;;
78840;SDS011;68379;47.190;27.558;2024-03-08T03:15:43;19.70;;;7.60;;
78840;SDS011;68379;47.190;27.558;2024-03-08T03:18:15;17.00;;;7.70;;
78840;SDS011;68379;47.190;27.558;2024-03-08T03:23:20;18.40;;;7.30;;
78840;SDS011;68379;47.190;27.558;2024-03-08T03:25:54;18.80;;;7.20;;
78840;SDS011;68379;47.190;27.558;2024-03-08T03:28:28;15.80;;;7.50;;
78840;SDS011;68379;47.190;27.558;2024-03-08T03:31:01;16.10;;;7.50;;
78840;SDS011;68379;47.190;27.558;2024-03-08T03:33:33;16.80;;;7.70;;
78840;SDS011;68379;47.190;27.558;2024-03-08T03:36:06;17.80;;;7.90;;
78840;SDS011;68379;47.190;27.558;2024-03-08T03:38:38;17.20;;;6.60;;
78840;SDS011;68379;47.190;27.558;2024-03-08T03:41:10;13.80;;;6.90;;
78840;SDS011;68379;47.190;27.558;2024-03-08T03:43:42;15.70;;;6.50;;
78840;SDS011;68379;47.190;27.558;2024-03-08T03:46:15;18.40;;;7.20;;
78840;SDS011;68379;47.190;27.558;2024-03-08T03:48:47;16.60;;;7.50;;
78840;SDS011;68379;47.190;27.558;2024-03-08T03:51:19;19.20;;;6.70;;
78840;SDS011;68379;47.190;27.558;2024-03-08T03:53:52;19.40;;;8.40;;
78840;SDS011;68379;47.190;27.558;2024-03-08T03:56:29;18.90;;;7.50;;
78840;SDS011;68379;47.190;27.558;2024-03-08T03:59:01;16.10;;;6.80;;
78840;SDS011;68379;47.190;27.558;2024-03-08T04:01:32;14.90;;;6.80;;
78840;SDS011;68379;47.190;27.558;2024-03-08T04:04:05;18.70;;;6.90;;
78840;SDS011;68379;47.190;27.558;2024-03-08T04:06:37;16.20;;;7.60;;
78840;SDS011;68379;47.190;27.558;2024-03-08T04:09:10;18.90;;;8.10;;
78840;SDS011;68379;47.190;27.558;2024-03-08T04:11:43;16.40;;;6.70;;
78840;SDS011;68379;47.190;27.558;2024-03-08T04:14:14;16.40;;;7.50;;
78840;SDS011;68379;47.190;27.558;2024-03-08T04:16:48;16.20;;;7.40;;
78840;SDS011;68379;47.190;27.558;2024-03-08T04:19:20;18.10;;;7.90;;
78840;SDS011;68379;47.190;27.558;2024-03-08T04:21:53;18.10;;;7.30;;
78840;SDS011;68379;47.190;27.558;2024-03-08T04:24:25;15.00;;;7.70;;
78840;SDS011;68379;47.190;27.558;2024-03-08T04:26:59;18.60;;;7.20;;
78840;SDS011;68379;47.190;27.558;2024-03-08T04:29:31;18.90;;;6.60;;
78840;SDS011;68379;47.190;27.558;2024-03-08T04:32:04;19.00;;;8.10;;
78840;SDS011;68379;47.190;27.558;2024-03-08T04:34:37;18.70;;;8.10;;
78840;SDS011;68379;47.190;27.558;2024-03-08T04:37:08;20.60;;;7.80;;
78840;SDS011;68379;47.190;27.558;2024-03-08T04:39:42;19.60;;;8.20;;
78840;SDS011;68379;47.190;27.558;2024-03-08T04:42:15;22.10;;;8.30;;
78840;SDS011;68379;47.190;27.558;2024-03-08T04:44:49;19.80;;;8.80;;
78840;SDS011;68379;47.190;27.558;2024-03-08T04:47:21;21.50;;;7.80;;
78840;SDS011;68379;47.190;27.558;2024-03-08T04:49:54;17.40;;;7.50;;
78840;SDS011;68379;47.190;27.558;2024-03-08T04:52:26;17.00;;;8.50;;
78840;SDS011;68379;47.190;27.558;2024-03-08T04:54:59;20.60;;;8.80;;
78840;SDS011;68379;47.190;27.558;2024-03-08T05:00:04;18.20;;;7.80;;
78840;SDS011;68379;47.190;27.558;2024-03-08T05:02:39;17.40;;;7.60;;
78840;SDS011;68379;47.190;27.558;2024-03-08T05:05:15;18.30;;;8.30;;
78840;SDS011;68379;47.190;27.558;2024-03-08T05:10:16;19.20;;;7.20;;
78840;SDS011;68379;47.190;27.558;2024-03-08T05:12:48;14.60;;;7.10;;
78840;SDS011;68379;47.190;27.558;2024-03-08T05:15:21;17.50;;;7.20;;
78840;SDS011;68379;47.190;27.558;2024-03-08T05:17:53;16.80;;;7.20;;
78840;SDS011;68379;47.190;27.558;2024-03-08T05:20:26;17.60;;;7.90;;
78840;SDS011;68379;47.190;27.558;2024-03-08T05:22:59;18.80;;;7.70;;
78840;SDS011;68379;47.190;27.558;2024-03-08T05:25:32;20.00;;;7.90;;
78840;SDS011;68379;47.190;27.558;2024-03-08T05:28:05;17.30;;;7.30;;
78840;SDS011;68379;47.190;27.558;2024-03-08T05:30:39;23.20;;;9.10;;
78840;SDS011;68379;47.190;27.558;2024-03-08T05:33:11;20.90;;;8.50;;
78840;SDS011;68379;47.190;27.558;2024-03-08T05:35:44;21.00;;;9.10;;
78840;SDS011;68379;47.190;27.558;2024-03-08T05:38:18;23.40;;;9.40;;
78840;SDS011;68379;47.190;27.558;2024-03-08T05:40:50;20.70;;;9.30;;
78840;SDS011;68379;47.190;27.558;2024-03-08T05:43:23;16.50;;;8.30;;
78840;SDS011;68379;47.190;27.558;2024-03-08T05:45:55;18.40;;;8.40;;
78840;SDS011;68379;47.190;27.558;2024-03-08T05:48:27;17.20;;;7.60;;
78840;SDS011;68379;47.190;27.558;2024-03-08T05:51:01;16.70;;;8.00;;
78840;SDS011;68379;47.190;27.558;2024-03-08T05:53:33;18.40;;;8.00;;
78840;SDS011;68379;47.190;27.558;2024-03-08T05:56:05;22.10;;;8.10;;
78840;SDS011;68379;47.190;27.558;2024-03-08T05:58:39;21.40;;;8.90;;
78840;SDS011;68379;47.190;27.558;2024-03-08T06:01:12;16.30;;;7.60;;
78840;SDS011;68379;47.190;27.558;2024-03-08T06:03:50;18.90;;;8.20;;
78840;SDS011;68379;47.190;27.558;2024-03-08T06:06:25;18.70;;;8.40;;
78840;SDS011;68379;47.190;27.558;2024-03-08T06:09:00;17.60;;;7.30;;
78840;SDS011;68379;47.190;27.558;2024-03-08T06:11:39;17.30;;;8.60;;
78840;SDS011;68379;47.190;27.558;2024-03-08T06:14:14;16.90;;;8.00;;
78840;SDS011;68379;47.190;27.558;2024-03-08T06:16:46;19.00;;;8.50;;
78840;SDS011;68379;47.190;27.558;2024-03-08T06:19:20;20.20;;;9.70;;
78840;SDS011;68379;47.190;27.558;2024-03-08T06:21:53;20.90;;;8.80;;
78840;SDS011;68379;47.190;27.558;2024-03-08T06:24:25;19.10;;;9.20;;
78840;SDS011;68379;47.190;27.558;2024-03-08T06:26:57;21.80;;;8.50;;
78840;SDS011;68379;47.190;27.558;2024-03-08T06:29:29;22.80;;;10.20;;
78840;SDS011;68379;47.190;27.558;2024-03-08T06:32:01;17.40;;;8.50;;
78840;SDS011;68379;47.190;27.558;2024-03-08T06:34:34;18.80;;;8.30;;
78840;SDS011;68379;47.190;27.558;2024-03-08T06:37:06;18.30;;;8.60;;
78840;SDS011;68379;47.190;27.558;2024-03-08T06:39:38;17.90;;;8.20;;
78840;SDS011;68379;47.190;27.558;2024-03-08T06:42:10;18.30;;;8.60;;
78840;SDS011;68379;47.190;27.558;2024-03-08T06:44:48;18.20;;;8.60;;
78840;SDS011;68379;47.190;27.558;2024-03-08T06:47:20;19.20;;;8.90;;
78840;SDS011;68379;47.190;27.558;2024-03-08T06:49:54;20.90;;;8.30;;
78840;SDS011;68379;47.190;27.558;2024-03-08T06:52:29;19.80;;;8.80;;
78840;SDS011;68379;47.190;27.558;2024-03-08T06:55:02;24.60;;;10.10;;
78840;SDS011;68379;47.190;27.558;2024-03-08T06:57:34;21.30;;;10.00;;
78840;SDS011;68379;47.190;27.558;2024-03-08T07:00:09;20.60;;;9.10;;
78840;SDS011;68379;47.190;27.558;2024-03-08T07:02:47;17.30;;;8.60;;
78840;SDS011;68379;47.190;27.558;2024-03-08T07:05:19;18.70;;;8.60;;
78840;SDS011;68379;47.190;27.558;2024-03-08T07:07:55;17.30;;;8.50;;
78840;SDS011;68379;47.190;27.558;2024-03-08T07:10:27;17.00;;;7.20;;
78840;SDS011;68379;47.190;27.558;2024-03-08T07:12:58;17.50;;;7.50;;
78840;SDS011;68379;47.190;27.558;2024-03-08T07:15:33;19.10;;;8.60;;
78840;SDS011;68379;47.190;27.558;2024-03-08T07:18:05;15.30;;;7.10;;
78840;SDS011;68379;47.190;27.558;2024-03-08T07:20:42;19.20;;;8.60;;
78840;SDS011;68379;47.190;27.558;2024-03-08T07:23:15;17.50;;;8.40;;
78840;SDS011;68379;47.190;27.558;2024-03-08T07:26:01;17.10;;;8.70;;
78840;SDS011;68379;47.190;27.558;2024-03-08T07:28:32;16.10;;;8.20;;
78840;SDS011;68379;47.190;27.558;2024-03-08T07:31:05;21.70;;;9.20;;
78840;SDS011;68379;47.190;27.558;2024-03-08T07:33:49;17.00;;;8.90;;
78840;SDS011;68379;47.190;27.558;2024-03-08T07:36:21;19.40;;;8.60;;
78840;SDS011;68379;47.190;27.558;2024-03-08T07:38:54;19.60;;;10.00;;
78840;SDS011;68379;47.190;27.558;2024-03-08T07:41:26;17.60;;;8.00;;
78840;SDS011;68379;47.190;27.558;2024-03-08T07:43:58;23.10;;;8.90;;
78840;SDS011;68379;47.190;27.558;2024-03-08T07:46:31;18.40;;;9.10;;
78840;SDS011;68379;47.190;27.558;2024-03-08T07:49:04;19.00;;;8.90;;
78840;SDS011;68379;47.190;27.558;2024-03-08T07:51:39;18.10;;;7.90;;
78840;SDS011;68379;47.190;27.558;2024-03-08T07:54:11;17.50;;;8.40;;
78840;SDS011;68379;47.190;27.558;2024-03-08T07:56:44;16.40;;;8.70;;
78840;SDS011;68379;47.190;27.558;2024-03-08T07:59:16;16.70;;;8.10;;
78840;SDS011;68379;47.190;27.558;2024-03-08T08:01:49;18.70;;;8.80;;
78840;SDS011;68379;47.190;27.558;2024-03-08T08:04:22;18.00;;;8.30;;
78840;SDS011;68379;47.190;27.558;2024-03-08T08:06:55;16.90;;;8.80;;
78840;SDS011;68379;47.190;27.558;2024-03-08T08:09:26;18.00;;;8.60;;
78840;SDS011;68379;47.190;27.558;2024-03-08T08:12:02;17.60;;;8.30;;
78840;SDS011;68379;47.190;27.558;2024-03-08T08:14:35;17.60;;;9.30;;
78840;SDS011;68379;47.190;27.558;2024-03-08T08:17:09;14.20;;;6.60;;
78840;SDS011;68379;47.190;27.558;2024-03-08T08:19:42;19.30;;;9.50;;
78840;SDS011;68379;47.190;27.558;2024-03-08T08:22:14;18.10;;;8.00;;
78840;SDS011;68379;47.190;27.558;2024-03-08T08:24:48;19.00;;;9.20;;
78840;SDS011;68379;47.190;27.558;2024-03-08T08:27:21;16.40;;;8.40;;
78840;SDS011;68379;47.190;27.558;2024-03-08T08:29:54;19.90;;;9.20;;
78840;SDS011;68379;47.190;27.558;2024-03-08T08:32:26;19.60;;;8.80;;
78840;SDS011;68379;47.190;27.558;2024-03-08T08:34:58;17.80;;;8.70;;
78840;SDS011;68379;47.190;27.558;2024-03-08T08:37:30;17.90;;;9.30;;
78840;SDS011;68379;47.190;27.558;2024-03-08T08:40:05;17.80;;;8.80;;
78840;SDS011;68379;47.190;27.558;2024-03-08T08:45:39;20.10;;;9.50;;
78840;SDS011;68379;47.190;27.558;2024-03-08T08:48:13;17.90;;;8.10;;
78840;SDS011;68379;47.190;27.558;2024-03-08T08:50:45;21.00;;;8.80;;
78840;SDS011;68379;47.190;27.558;2024-03-08T08:53:18;16.40;;;9.30;;
78840;SDS011;68379;47.190;27.558;2024-03-08T08:55:50;17.20;;;9.00;;
78840;SDS011;68379;47.190;27.558;2024-03-08T08:58:23;18.70;;;9.50;;
78840;SDS011;68379;47.190;27.558;2024-03-08T09:00:57;20.80;;;8.90;;
78840;SDS011;68379;47.190;27.558;2024-03-08T09:03:29;16.60;;;8.60;;
78840;SDS011;68379;47.190;27.558;2024-03-08T09:06:03;18.00;;;8.20;;
78840;SDS011;68379;47.190;27.558;2024-03-08T09:08:38;19.50;;;9.30;;
78840;SDS011;68379;47.190;27.558;2024-03-08T09:11:10;19.10;;;9.20;;
78840;SDS011;68379;47.190;27.558;2024-03-08T09:13:43;18.80;;;9.20;;
78840;SDS011;68379;47.190;27.558;2024-03-08T09:16:16;18.80;;;9.20;;
78840;SDS011;68379;47.190;27.558;2024-03-08T09:18:48;17.90;;;9.00;;
78840;SDS011;68379;47.190;27.558;2024-03-08T09:21:22;17.50;;;9.20;;
78840;SDS011;68379;47.190;27.558;2024-03-08T09:23:55;20.00;;;9.70;;
78840;SDS011;68379;47.190;27.558;2024-03-08T09:26:27;18.50;;;9.20;;
78840;SDS011;68379;47.190;27.558;2024-03-08T09:29:00;20.20;;;9.60;;
78840;SDS011;68379;47.190;27.558;2024-03-08T09:31:33;19.40;;;9.00;;
78840;SDS011;68379;47.190;27.558;2024-03-08T09:34:06;22.00;;;9.10;;
78840;SDS011;68379;47.190;27.558;2024-03-08T09:36:38;16.50;;;9.00;;
78840;SDS011;68379;47.190;27.558;2024-03-08T09:39:11;20.70;;;9.70;;
78840;SDS011;68379;47.190;27.558;2024-03-08T09:41:45;18.50;;;9.10;;
78840;SDS011;68379;47.190;27.558;2024-03-08T09:44:17;20.50;;;10.30;;
78840;SDS011;68379;47.190;27.558;2024-03-08T09:46:50;23.10;;;10.10;;
78840;SDS011;68379;47.190;27.558;2024-03-08T09:49:22;21.00;;;9.50;;
78840;SDS011;68379;47.190;27.558;2024-03-08T09:51:54;19.90;;;9.70;;
78840;SDS011;68379;47.190;27.558;2024-03-08T09:54:26;20.30;;;10.10;;
78840;SDS011;68379;47.190;27.558;2024-03-08T09:56:58;19.10;;;9.50;;
78840;SDS011;68379;47.190;27.558;2024-03-08T09:59:32;23.70;;;9.10;;
78840;SDS011;68379;47.190;27.558;2024-03-08T10:02:17;21.70;;;10.00;;
78840;SDS011;68379;47.190;27.558;2024-03-08T10:04:50;19.10;;;9.90;;
78840;SDS011;68379;47.190;27.558;2024-03-08T10:07:24;19.10;;;9.20;;
78840;SDS011;68379;47.190;27.558;2024-03-08T10:09:56;20.20;;;10.10;;
78840;SDS011;68379;47.190;27.558;2024-03-08T10:12:29;18.80;;;9.20;;
78840;SDS011;68379;47.190;27.558;2024-03-08T10:15:01;22.30;;;10.00;;
78840;SDS011;68379;47.190;27.558;2024-03-08T10:17:36;21.50;;;10.70;;
78840;SDS011;68379;47.190;27.558;2024-03-08T10:20:14;19.40;;;9.70;;
78840;SDS011;68379;47.190;27.558;2024-03-08T10:22:47;20.50;;;9.40;;
78840;SDS011;68379;47.190;27.558;2024-03-08T10:25:20;20.80;;;11.00;;
78840;SDS011;68379;47.190;27.558;2024-03-08T10:27:52;21.60;;;10.20;;
78840;SDS011;68379;47.190;27.558;2024-03-08T10:30:25;21.40;;;10.10;;
78840;SDS011;68379;47.190;27.558;2024-03-08T10:32:57;18.50;;;9.30;;
78840;SDS011;68379;47.190;27.558;2024-03-08T10:35:36;20.90;;;10.40;;
78840;SDS011;68379;47.190;27.558;2024-03-08T10:38:08;24.50;;;10.50;;
78840;SDS011;68379;47.190;27.558;2024-03-08T10:40:48;18.50;;;9.50;;
78840;SDS011;68379;47.190;27.558;2024-03-08T10:43:23;21.30;;;10.50;;
78840;SDS011;68379;47.190;27.558;2024-03-08T10:46:03;19.10;;;10.20;;
78840;SDS011;68379;47.190;27.558;2024-03-08T10:48:46;22.00;;;10.00;;
78840;SDS011;68379;47.190;27.558;2024-03-08T10:51:21;25.80;;;10.40;;
78840;SDS011;68379;47.190;27.558;2024-03-08T10:53:54;22.10;;;9.90;;
78840;SDS011;68379;47.190;27.558;2024-03-08T10:56:31;21.30;;;10.80;;
78840;SDS011;68379;47.190;27.558;2024-03-08T10:59:03;22.80;;;11.00;;
78840;SDS011;68379;47.190;27.558;2024-03-08T11:01:35;20.30;;;10.60;;
78840;SDS011;68379;47.190;27.558;2024-03-08T11:04:08;20.20;;;9.90;;
78840;SDS011;68379;47.190;27.558;2024-03-08T11:06:44;19.90;;;10.00;;
78840;SDS011;68379;47.190;27.558;2024-03-08T11:14:58;22.90;;;10.90;;
78840;SDS011;68379;47.190;27.558;2024-03-08T11:17:44;20.90;;;9.20;;
78840;SDS011;68379;47.190;27.558;2024-03-08T11:20:19;21.90;;;10.70;;
78840;SDS011;68379;47.190;27.558;2024-03-08T11:22:55;19.80;;;10.20;;
78840;SDS011;68379;47.190;27.558;2024-03-08T11:25:34;20.80;;;10.40;;
78840;SDS011;68379;47.190;27.558;2024-03-08T11:28:14;20.50;;;10.10;;
78840;SDS011;68379;47.190;27.558;2024-03-08T11:33:56;21.50;;;10.20;;
78840;SDS011;68379;47.190;27.558;2024-03-08T11:36:30;22.30;;;10.80;;
78840;SDS011;68379;47.190;27.558;2024-03-08T11:39:07;23.90;;;10.40;;
78840;SDS011;68379;47.190;27.558;2024-03-08T11:41:43;22.00;;;10.50;;
78840;SDS011;68379;47.190;27.558;2024-03-08T11:44:17;21.20;;;9.90;;
78840;SDS011;68379;47.190;27.558;2024-03-08T11:46:50;18.90;;;9.70;;
78840;SDS011;68379;47.190;27.558;2024-03-08T11:49:22;22.70;;;11.10;;
78840;SDS011;68379;47.190;27.558;2024-03-08T11:51:54;20.80;;;10.10;;
78840;SDS011;68379;47.190;27.558;2024-03-08T11:54:29;20.20;;;10.00;;
78840;SDS011;68379;47.190;27.558;2024-03-08T11:57:02;20.80;;;10.10;;
78840;SDS011;68379;47.190;27.558;2024-03-08T11:59:38;20.50;;;10.10;;
78840;SDS011;68379;47.190;27.558;2024-03-08T12:02:11;23.20;;;10.90;;
78840;SDS011;68379;47.190;27.558;2024-03-08T12:04:43;25.20;;;12.10;;
78840;SDS011;68379;47.190;27.558;2024-03-08T12:07:15;22.40;;;11.10;;
78840;SDS011;68379;47.190;27.558;2024-03-08T12:12:50;22.20;;;10.10;;
78840;SDS011;68379;47.190;27.558;2024-03-08T12:15:24;19.30;;;9.70;;
78840;SDS011;68379;47.190;27.558;2024-03-08T12:17:56;21.10;;;10.70;;
78840;SDS011;68379;47.190;27.558;2024-03-08T12:20:29;23.10;;;10.80;;
78840;SDS011;68379;47.190;27.558;2024-03-08T12:23:01;24.40;;;11.00;;
78840;SDS011;68379;47.190;27.558;2024-03-08T12:25:34;22.00;;;11.10;;
78840;SDS011;68379;47.190;27.558;2024-03-08T12:28:08;25.50;;;11.20;;
78840;SDS011;68379;47.190;27.558;2024-03-08T12:30:47;22.10;;;10.10;;
78840;SDS011;68379;47.190;27.558;2024-03-08T12:33:22;20.00;;;9.90;;
78840;SDS011;68379;47.190;27.558;2024-03-08T12:35:54;22.40;;;10.70;;
78840;SDS011;68379;47.190;27.558;2024-03-08T12:38:29;22.90;;;11.00;;
78840;SDS011;68379;47.190;27.558;2024-03-08T12:41:03;21.80;;;11.10;;
78840;SDS011;68379;47.190;27.558;2024-03-08T12:43:38;24.80;;;12.50;;
78840;SDS011;68379;47.190;27.558;2024-03-08T12:46:10;23.10;;;11.20;;
78840;SDS011;68379;47.190;27.558;2024-03-08T12:48:43;25.80;;;11.30;;
78840;SDS011;68379;47.190;27.558;2024-03-08T12:51:15;22.40;;;11.50;;
78840;SDS011;68379;47.190;27.558;2024-03-08T12:53:48;24.40;;;11.20;;
78840;SDS011;68379;47.190;27.558;2024-03-08T12:56:30;25.30;;;12.00;;
78840;SDS011;68379;47.190;27.558;2024-03-08T12:59:03;21.80;;;11.90;;
78840;SDS011;68379;47.190;27.558;2024-03-08T13:01:37;24.20;;;12.40;;
78840;SDS011;68379;47.190;27.558;2024-03-08T13:04:09;23.60;;;11.50;;
78840;SDS011;68379;47.190;27.558;2024-03-08T13:06:41;24.90;;;11.90;;
78840;SDS011;68379;47.190;27.558;2024-03-08T13:09:15;22.20;;;11.60;;
78840;SDS011;68379;47.190;27.558;2024-03-08T13:11:48;25.50;;;12.00;;
78840;SDS011;68379;47.190;27.558;2024-03-08T13:14:20;20.60;;;11.20;;
78840;SDS011;68379;47.190;27.558;2024-03-08T13:16:52;24.00;;;11.60;;
78840;SDS011;68379;47.190;27.558;2024-03-08T13:19:24;23.10;;;11.40;;
78840;SDS011;68379;47.190;27.558;2024-03-08T13:21:59;22.80;;;10.40;;
78840;SDS011;68379;47.190;27.558;2024-03-08T13:24:33;24.30;;;11.00;;
78840;SDS011;68379;47.190;27.558;2024-03-08T13:27:05;20.20;;;8.70;;
78840;SDS011;68379;47.190;27.558;2024-03-08T13:29:48;21.50;;;11.00;;
78840;SDS011;68379;47.190;27.558;2024-03-08T13:32:20;22.80;;;11.00;;
78840;SDS011;68379;47.190;27.558;2024-03-08T13:34:54;21.80;;;10.80;;
78840;SDS011;68379;47.190;27.558;2024-03-08T13:37:26;24.70;;;11.90;;
78840;SDS011;68379;47.190;27.558;2024-03-08T13:39:57;22.40;;;10.90;;
78840;SDS011;68379;47.190;27.558;2024-03-08T13:42:29;22.70;;;11.20;;
78840;SDS011;68379;47.190;27.558;2024-03-08T13:45:01;22.60;;;10.70;;
78840;SDS011;68379;47.190;27.558;2024-03-08T13:50:06;22.20;;;11.00;;
78840;SDS011;68379;47.190;27.558;2024-03-08T13:52:41;23.00;;;10.40;;
78840;SDS011;68379;47.190;27.558;2024-03-08T13:55:13;22.10;;;10.90;;
78840;SDS011;68379;47.190;27.558;2024-03-08T13:57:46;22.80;;;11.10;;
78840;SDS011;68379;47.190;27.558;2024-03-08T14:00:19;22.30;;;11.40;;
78840;SDS011;68379;47.190;27.558;2024-03-08T14:02:55;19.90;;;10.50;;
78840;SDS011;68379;47.190;27.558;2024-03-08T14:08:01;27.10;;;11.70;;
78840;SDS011;68379;47.190;27.558;2024-03-08T14:10:35;22.60;;;10.60;;
78840;SDS011;68379;47.190;27.558;2024-03-08T14:13:07;18.80;;;8.70;;
78840;SDS011;68379;47.190;27.558;2024-03-08T14:15:39;21.40;;;11.20;;
78840;SDS011;68379;47.190;27.558;2024-03-08T14:18:14;20.80;;;10.50;;
78840;SDS011;68379;47.190;27.558;2024-03-08T14:20:46;23.10;;;10.90;;
78840;SDS011;68379;47.190;27.558;2024-03-08T14:23:19;21.80;;;10.70;;
78840;SDS011;68379;47.190;27.558;2024-03-08T14:25:51;24.70;;;11.40;;
78840;SDS011;68379;47.190;27.558;2024-03-08T14:28:24;20.40;;;10.20;;
78840;SDS011;68379;47.190;27.558;2024-03-08T14:30:56;20.30;;;10.40;;
78840;SDS011;68379;47.190;27.558;2024-03-08T14:33:31;23.30;;;10.50;;
78840;SDS011;68379;47.190;27.558;2024-03-08T14:36:06;25.30;;;11.80;;
78840;SDS011;68379;47.190;27.558;2024-03-08T14:38:41;23.50;;;11.10;;
78840;SDS011;68379;47.190;27.558;2024-03-08T14:41:15;19.80;;;8.80;;
78840;SDS011;68379;47.190;27.558;2024-03-08T14:43:48;21.60;;;10.20;;
78840;SDS011;68379;47.190;27.558;2024-03-08T14:46:22;20.20;;;9.80;;
78840;SDS011;68379;47.190;27.558;2024-03-08T14:48:55;22.80;;;10.80;;
78840;SDS011;68379;47.190;27.558;2024-03-08T14:51:26;23.70;;;11.20;;
78840;SDS011;68379;47.190;27.558;2024-03-08T14:53:59;26.80;;;12.30;;
78840;SDS011;68379;47.190;27.558;2024-03-08T14:56:34;23.40;;;11.20;;
78840;SDS011;68379;47.190;27.558;2024-03-08T14:59:10;21.30;;;9.40;;
78840;SDS011;68379;47.190;27.558;2024-03-08T15:01:43;25.70;;;10.50;;
78840;SDS011;68379;47.190;27.558;2024-03-08T15:04:15;25.60;;;11.60;;
78840;SDS011;68379;47.190;27.558;2024-03-08T15:06:49;27.60;;;12.70;;
78840;SDS011;68379;47.190;27.558;2024-03-08T15:09:21;23.70;;;11.70;;
78840;SDS011;68379;47.190;27.558;2024-03-08T15:11:53;22.80;;;11.70;;
78840;SDS011;68379;47.190;27.558;2024-03-08T15:14:26;24.70;;;11.30;;
78840;SDS011;68379;47.190;27.558;2024-03-08T15:17:01;26.70;;;12.80;;
78840;SDS011;68379;47.190;27.558;2024-03-08T15:19:39;23.90;;;11.40;;
78840;SDS011;68379;47.190;27.558;2024-03-08T15:22:11;24.10;;;12.00;;
78840;SDS011;68379;47.190;27.558;2024-03-08T15:24:46;24.10;;;11.10;;
78840;SDS011;68379;47.190;27.558;2024-03-08T15:27:17;27.20;;;12.70;;